createdAt,value
2022-10-11T00:00:01.138Z,1014.7384830885462
2022-10-11T00:15:01.728Z,1014.8289211260687
2022-10-11T00:30:01.388Z,1015.011434727778
2022-10-11T00:45:01.009Z,1015.1047904275961
2022-10-11T01:00:01.663Z,1015.146935616257
2022-10-11T01:15:01.290Z,1015.2574847816127
2022-10-11T01:30:00.956Z,1015.3866562689383
2022-10-11T01:45:01.902Z,1015.4783902867509
2022-10-11T02:00:01.500Z,1015.4617854253337
2022-10-11T02:15:02.422Z,1015.5149402242364
2022-10-11T02:30:02.111Z,1015.5790713682945
2022-10-11T02:45:01.754Z,1015.6488534810592
2022-10-11T03:00:02.376Z,1015.6943562308406
2022-10-11T03:15:02.086Z,1015.8101604059938
2022-10-11T03:30:01.728Z,1015.9621090985073
2022-10-11T03:45:02.370Z,1016.1273623351906
2022-10-11T04:00:01.967Z,1016.3139964896607
2022-10-11T04:15:01.613Z,1016.4189105211726
2022-10-11T04:30:02.271Z,1016.6366431217896
2022-10-11T04:45:01.911Z,1016.714927823854
2022-10-11T05:00:01.487Z,1016.8911792320571
2022-10-11T05:15:02.156Z,1016.9427050496155
2022-10-11T05:30:01.848Z,1017.0786564660114
2022-10-11T05:45:01.532Z,1017.1784432771514
2022-10-11T06:00:02.134Z,1017.1695328689435
2022-10-11T06:15:01.715Z,1017.3241599702841
2022-10-11T06:30:01.369Z,1017.5021163158583
2022-10-11T06:45:01.987Z,1017.6954029288397
2022-10-11T07:00:01.592Z,1017.8836379383199
2022-10-11T07:15:02.215Z,1018.0074687671291
2022-10-11T07:30:01.856Z,1018.078405918255
2022-10-11T07:45:01.455Z,1018.1447733664511
2022-10-11T08:00:02.072Z,1018.2819264951062
2022-10-11T08:15:01.680Z,1018.348463641872
2022-10-11T08:30:01.332Z,1018.4767451895293
2022-10-11T08:45:11.547Z,1018.5580940340022
2022-10-11T09:00:01.645Z,1018.6650917785681
2022-10-11T09:15:01.317Z,1018.8137739469914
2022-10-11T09:30:01.958Z,1018.8126727113536
2022-10-11T09:45:01.549Z,1018.8085543923808
2022-10-11T10:00:02.236Z,1018.8562629323616
2022-10-11T10:15:02.191Z,1018.8671414302001
2022-10-11T10:30:01.875Z,1018.9663128333734
2022-10-11T10:45:01.491Z,1018.9860985023363
2022-10-11T11:00:02.088Z,1018.9847474537717
2022-10-11T11:15:01.733Z,1018.9844278240664
2022-10-11T11:30:02.407Z,1018.7972759563346
2022-10-11T11:45:02.074Z,1018.744382199618
2022-10-11T12:00:01.691Z,1018.6205295016027
2022-10-11T12:15:02.370Z,1018.5878511063763
2022-10-11T12:30:02.120Z,1018.445051750451
2022-10-11T12:45:01.768Z,1018.3223458130897
2022-10-11T13:00:02.404Z,1018.2319462255157
2022-10-11T13:15:02.078Z,1018.1636287422936
2022-10-11T13:30:01.768Z,1018.1894088386872
2022-10-11T13:45:01.388Z,1017.9538024371811
2022-10-11T14:00:02.003Z,1018.0479214588089
2022-10-11T14:15:01.665Z,1018.083182621758
2022-10-11T14:30:25.073Z,1017.95491143007
2022-10-11T14:45:02.032Z,1017.9037868699504
2022-10-11T15:00:01.639Z,1017.9494454890294
2022-10-11T15:15:02.260Z,1017.9072722676991
2022-10-11T15:30:01.924Z,1017.8213370355023
2022-10-11T15:45:01.567Z,1017.7666744259117
2022-10-11T16:00:02.158Z,1017.7344672638897
2022-10-11T16:15:01.787Z,1017.7048719958258
2022-10-11T16:30:01.461Z,1017.7706589485861
2022-10-11T16:45:02.116Z,1017.7855929330844
2022-10-11T17:00:01.733Z,1017.7881181488415
2022-10-11T17:15:01.359Z,1017.8021453191241
2022-10-11T17:30:01.978Z,1017.7669321797911
2022-10-11T17:45:01.591Z,1017.8112170643436
2022-10-11T18:00:02.211Z,1017.8809994955304
2022-10-11T18:15:02.132Z,1017.8484862536325
2022-10-11T18:30:01.792Z,1017.9183864959514
2022-10-11T18:45:02.427Z,1017.9152058538986
2022-10-11T19:00:11.779Z,1017.7590052549081
2022-10-11T19:15:02.249Z,1017.819171061064
2022-10-11T19:30:01.977Z,1017.7198806057988
2022-10-11T19:45:01.613Z,1017.5912702061985
2022-10-11T20:00:02.203Z,1017.6233492634783
2022-10-11T20:15:01.845Z,1017.6561472361619
2022-10-11T20:30:01.533Z,1017.6621464235947
2022-10-11T20:45:02.181Z,1017.648061662952
2022-10-11T21:00:01.793Z,1017.5444389034747
2022-10-11T21:15:01.426Z,1017.6327089022263
2022-10-11T21:30:02.122Z,1017.6367909710058
2022-10-11T21:45:01.721Z,1017.6198877636402
2022-10-11T22:00:02.330Z,1017.5926899930444
2022-10-11T22:15:01.980Z,1017.6725545982167
2022-10-11T22:30:01.608Z,1017.5934755284394
2022-10-11T22:45:02.242Z,1017.4959283087824
2022-10-11T23:00:01.838Z,1017.6053539566321
2022-10-11T23:15:01.465Z,1017.4750682673962
2022-10-11T23:30:02.205Z,1017.4790485379385
2022-10-11T23:45:01.840Z,1017.566258550688
